METAR Data
IDs: Format: Raw Decoded Include TAF

Data at: 1514 UTC 26 Sep 2021

LIBA 261455Z 09011KT CAVOK 25/16 Q1018 RMK BKN BKN200 BKN230 VIS MIN 9999 WIND THR11 09011KT WIND THR29 /////KT BLU

LIBC 261450Z 19009KT CAVOK 25/19 Q1020

LIBD 261450Z 08008KT CAVOK 25/17 Q1019

LIBF 261450Z 08011KT CAVOK 27/15 Q1018

LIBG 261450Z 22005KT 160V260 CAVOK 29/18 Q1018

LIBP 261450Z AUTO 10004KT 050V160 9999 NCD 26/16 Q1018

LIBR 261450Z 08006KT CAVOK 23/16 Q1019

LIBV 261455Z 16009KT CAVOK 29/14 Q1019 RMK FEW FEW200 VIS MIN 9999 WIND THR32 17008KT WIND THR14 18009KT BLU

LICA 261450Z AUTO 25010KT 9999 NCD 26/21 Q1020

LICC 261450Z 08009KT CAVOK 27/23 Q1019

LICD 261450Z AUTO 15009KT 9999 NCD 28/21 Q1020

LICG 261450Z 19015KT CAVOK 28/18 Q1020

LICJ 261450Z 03009KT CAVOK 27/22 Q1021

LICR 261450Z AUTO 20005KT 9999 NCD 26/21 Q1020

LICT 261455Z 19011KT 9999 FEW022 28/22 Q1020 RMK BKN BKN200 VIS MIN 9999 WIND THR13 22010KT BLU

LICZ 261455Z 07013KT 9999 FEW030 28/25 Q1018 RMK SCT SCT180 VIS MIN 9999 WIND THR28 07011KT WIND THR10 07013KT A3008 BLU

LIEA 261450Z 29008KT 240V320 CAVOK 28/23 Q1017

LIEE 261450Z 19014KT 9999 FEW040 27/24 Q1017

LIED 261455Z 16014G24KT 9999 FEW020 SCT060 29/27 Q1017 RMK BKN VIS MIN 9999 WIND THR35 15013G24KT WIND THR17 16012KT BLU

LIEO 261450Z 02007KT 350V060 9999 FEW040 33/18 Q1016

LIPR 261450Z 31012KT 9999 TS FEW008 SCT015CB BKN050 24/18 Q1018

LIPY 261450Z AUTO 15009KT 9999 NCD 26/18 Q1016

LIRA 261450Z 22011KT 190V250 9999 SCT040 28/19 Q1019

LIRE 261455Z 18013KT CAVOK 27/24 Q1019 RMK SCT SCT080 VIS MIN 9999 WIND THR13 18011KT WIND THR31 /////KT BLU

LIRF 261450Z 19009KT CAVOK 26/21 Q1019 NOSIG

No METAR found for LIRG

No METAR found for LIRH

No METAR found for LIRL

LIRM 261455Z /////KT CAVOK 28/20 Q1019

LIRN 261450Z 32005KT 280V040 CAVOK 28/18 Q1020 NOSIG

LIRP 261445Z 21015KT 9999 FEW020CB BKN025 26/24 Q1017 TEMPO 5000 TSRA

LIRQ 261450Z 36017KT 330V030 9999 VCTS FEW035CB BKN045 22/17 Q1016 RETS

LIRS 261455Z 15016G26KT 9999 SCT015 BKN025 26/24 Q1016 RMK BKN VIS MIN 9999 WIND

LIRZ 261450Z AUTO 21012KT 9999 FEW039/// 27/18 Q1018

LMML 261445Z 18009KT 150V220 CAVOK 27/18 Q1020 NOSIG

DTTA 261500Z 11009KT 060V170 9999 BKN026 32/23 Q1017

DTTJ 261500Z 07011KT CAVOK 31/22 Q1017 NOSIG